sensor_id;sensor_type;location;lat;lon;timestamp;pressure;altitude;pressure_sealevel;temperature;humidity
41078;BME280;26823;42.662;23.352;2023-01-26T00:01:43;95231.44;;;-2.10;90.65
41078;BME280;26823;42.662;23.352;2023-01-26T00:04:09;95237.50;;;-1.95;90.11
41078;BME280;26823;42.662;23.352;2023-01-26T00:06:35;95246.38;;;-2.03;90.20
41078;BME280;26823;42.662;23.352;2023-01-26T00:09:00;95238.19;;;-2.08;89.96
41078;BME280;26823;42.662;23.352;2023-01-26T00:11:27;95249.56;;;-2.14;90.55
41078;BME280;26823;42.662;23.352;2023-01-26T00:13:54;95232.38;;;-2.18;90.74
41078;BME280;26823;42.662;23.352;2023-01-26T00:16:28;95231.94;;;-2.22;90.47
41078;BME280;26823;42.662;23.352;2023-01-26T00:19:00;95242.97;;;-2.18;90.56
41078;BME280;26823;42.662;23.352;2023-01-26T00:21:25;95246.72;;;-2.13;90.44
41078;BME280;26823;42.662;23.352;2023-01-26T00:23:51;95250.31;;;-2.20;90.75
41078;BME280;26823;42.662;23.352;2023-01-26T00:26:22;95249.56;;;-2.14;90.73
41078;BME280;26823;42.662;23.352;2023-01-26T00:28:48;95241.34;;;-2.19;90.19
41078;BME280;26823;42.662;23.352;2023-01-26T00:31:16;95189.78;;;-2.38;90.26
41078;BME280;26823;42.662;23.352;2023-01-26T00:33:42;95203.84;;;-2.38;90.63
41078;BME280;26823;42.662;23.352;2023-01-26T00:36:07;95215.78;;;-2.05;90.27
41078;BME280;26823;42.662;23.352;2023-01-26T00:38:33;95210.81;;;-2.15;89.90
41078;BME280;26823;42.662;23.352;2023-01-26T00:40:58;95212.19;;;-2.19;90.71
41078;BME280;26823;42.662;23.352;2023-01-26T00:43:24;95206.56;;;-2.31;90.64
41078;BME280;26823;42.662;23.352;2023-01-26T00:45:50;95209.78;;;-2.36;90.26
41078;BME280;26823;42.662;23.352;2023-01-26T00:48:15;95205.19;;;-2.27;90.02
41078;BME280;26823;42.662;23.352;2023-01-26T00:50:41;95194.66;;;-2.42;89.62
41078;BME280;26823;42.662;23.352;2023-01-26T00:53:06;95185.88;;;-2.42;90.11
41078;BME280;26823;42.662;23.352;2023-01-26T00:55:32;95210.47;;;-2.27;89.92
41078;BME280;26823;42.662;23.352;2023-01-26T00:58:01;95202.78;;;-2.22;89.83
41078;BME280;26823;42.662;23.352;2023-01-26T01:00:27;95207.31;;;-2.16;89.73
41078;BME280;26823;42.662;23.352;2023-01-26T01:02:53;95204.06;;;-2.18;88.90
41078;BME280;26823;42.662;23.352;2023-01-26T01:05:21;95194.47;;;-2.19;88.45
41078;BME280;26823;42.662;23.352;2023-01-26T01:07:46;95182.66;;;-2.16;88.45
41078;BME280;26823;42.662;23.352;2023-01-26T01:10:12;95170.28;;;-2.31;88.09
41078;BME280;26823;42.662;23.352;2023-01-26T01:12:37;95179.13;;;-2.23;88.24
41078;BME280;26823;42.662;23.352;2023-01-26T01:15:03;95175.78;;;-2.32;87.93
41078;BME280;26823;42.662;23.352;2023-01-26T01:17:35;95176.59;;;-2.10;87.43
41078;BME280;26823;42.662;23.352;2023-01-26T01:20:06;95183.91;;;-2.12;87.21
41078;BME280;26823;42.662;23.352;2023-01-26T01:22:33;95185.06;;;-2.21;87.47
41078;BME280;26823;42.662;23.352;2023-01-26T01:24:58;95168.72;;;-2.25;87.13
41078;BME280;26823;42.662;23.352;2023-01-26T01:27:24;95176.00;;;-2.05;87.15
41078;BME280;26823;42.662;23.352;2023-01-26T01:29:50;95180.44;;;-1.91;86.15
41078;BME280;26823;42.662;23.352;2023-01-26T01:32:15;95175.44;;;-2.01;85.60
41078;BME280;26823;42.662;23.352;2023-01-26T01:34:41;95170.47;;;-2.10;86.44
41078;BME280;26823;42.662;23.352;2023-01-26T01:37:06;95171.41;;;-1.97;85.89
41078;BME280;26823;42.662;23.352;2023-01-26T01:39:31;95175.50;;;-1.94;85.56
41078;BME280;26823;42.662;23.352;2023-01-26T01:41:57;95170.16;;;-2.01;85.53
41078;BME280;26823;42.662;23.352;2023-01-26T01:44:24;95172.09;;;-2.09;85.45
41078;BME280;26823;42.662;23.352;2023-01-26T01:46:59;95180.19;;;-1.96;85.54
41078;BME280;26823;42.662;23.352;2023-01-26T01:49:36;95170.66;;;-2.12;85.67
41078;BME280;26823;42.662;23.352;2023-01-26T01:52:13;95137.72;;;-2.46;85.47
41078;BME280;26823;42.662;23.352;2023-01-26T01:54:54;95161.56;;;-2.24;85.36
41078;BME280;26823;42.662;23.352;2023-01-26T01:57:25;95179.00;;;-2.15;85.75
41078;BME280;26823;42.662;23.352;2023-01-26T01:59:58;95169.91;;;-2.06;85.28
41078;BME280;26823;42.662;23.352;2023-01-26T02:02:25;95160.44;;;-2.15;85.85
41078;BME280;26823;42.662;23.352;2023-01-26T02:04:51;95160.75;;;-2.25;85.40
41078;BME280;26823;42.662;23.352;2023-01-26T02:07:16;95154.75;;;-2.12;85.55
41078;BME280;26823;42.662;23.352;2023-01-26T02:09:42;95156.03;;;-2.30;85.65
41078;BME280;26823;42.662;23.352;2023-01-26T02:12:29;95143.69;;;-2.44;86.52
41078;BME280;26823;42.662;23.352;2023-01-26T02:14:56;95138.06;;;-2.34;86.21
41078;BME280;26823;42.662;23.352;2023-01-26T02:17:22;95130.69;;;-2.39;86.49
41078;BME280;26823;42.662;23.352;2023-01-26T02:20:02;95143.84;;;-2.24;86.81
41078;BME280;26823;42.662;23.352;2023-01-26T02:25:54;95126.13;;;-2.23;86.58
41078;BME280;26823;42.662;23.352;2023-01-26T02:28:24;95121.22;;;-2.26;86.51
41078;BME280;26823;42.662;23.352;2023-01-26T02:30:50;95106.38;;;-2.42;86.53
41078;BME280;26823;42.662;23.352;2023-01-26T02:33:22;95119.31;;;-2.33;86.80
41078;BME280;26823;42.662;23.352;2023-01-26T02:35:48;95123.03;;;-2.27;87.09
41078;BME280;26823;42.662;23.352;2023-01-26T02:38:14;95113.63;;;-2.30;86.89
41078;BME280;26823;42.662;23.352;2023-01-26T02:41:07;95108.78;;;-2.26;86.94
41078;BME280;26823;42.662;23.352;2023-01-26T02:43:33;95099.94;;;-2.33;86.96
41078;BME280;26823;42.662;23.352;2023-01-26T02:45:59;95101.22;;;-2.29;86.72
41078;BME280;26823;42.662;23.352;2023-01-26T02:48:25;95103.66;;;-2.27;86.53
41078;BME280;26823;42.662;23.352;2023-01-26T02:51:09;95084.34;;;-2.21;85.63
41078;BME280;26823;42.662;23.352;2023-01-26T02:53:34;95092.91;;;-2.19;85.81
41078;BME280;26823;42.662;23.352;2023-01-26T02:55:59;95081.66;;;-2.28;85.98
41078;BME280;26823;42.662;23.352;2023-01-26T02:58:25;95071.06;;;-2.28;85.51
41078;BME280;26823;42.662;23.352;2023-01-26T03:00:50;95054.19;;;-2.20;85.42
41078;BME280;26823;42.662;23.352;2023-01-26T03:03:19;95074.88;;;-2.09;85.27
41078;BME280;26823;42.662;23.352;2023-01-26T03:05:46;95081.78;;;-2.08;85.26
41078;BME280;26823;42.662;23.352;2023-01-26T03:08:11;95075.25;;;-2.12;85.01
41078;BME280;26823;42.662;23.352;2023-01-26T03:10:37;95078.09;;;-2.14;85.31
41078;BME280;26823;42.662;23.352;2023-01-26T03:13:03;95079.19;;;-2.01;85.38
41078;BME280;26823;42.662;23.352;2023-01-26T03:15:29;95069.75;;;-2.10;84.82
41078;BME280;26823;42.662;23.352;2023-01-26T03:18:17;95048.13;;;-2.14;84.59
41078;BME280;26823;42.662;23.352;2023-01-26T03:21:10;95055.88;;;-2.13;84.90
41078;BME280;26823;42.662;23.352;2023-01-26T03:23:55;95054.75;;;-1.97;84.66
41078;BME280;26823;42.662;23.352;2023-01-26T03:26:46;95044.34;;;-1.98;85.46
41078;BME280;26823;42.662;23.352;2023-01-26T03:29:30;95048.78;;;-2.05;84.98
41078;BME280;26823;42.662;23.352;2023-01-26T03:31:56;95028.50;;;-2.20;85.54
41078;BME280;26823;42.662;23.352;2023-01-26T03:34:23;95051.94;;;-2.17;85.86
41078;BME280;26823;42.662;23.352;2023-01-26T03:36:49;95032.78;;;-2.19;85.60
41078;BME280;26823;42.662;23.352;2023-01-26T03:39:14;95031.34;;;-2.21;85.21
41078;BME280;26823;42.662;23.352;2023-01-26T03:41:58;95026.63;;;-2.26;85.38
41078;BME280;26823;42.662;23.352;2023-01-26T03:44:42;95038.09;;;-2.19;85.45
41078;BME280;26823;42.662;23.352;2023-01-26T03:47:26;95027.53;;;-2.12;86.26
41078;BME280;26823;42.662;23.352;2023-01-26T03:50:10;95024.22;;;-2.21;86.10
41078;BME280;26823;42.662;23.352;2023-01-26T03:52:55;95028.19;;;-2.03;85.90
41078;BME280;26823;42.662;23.352;2023-01-26T03:55:39;95019.56;;;-2.12;85.85
41078;BME280;26823;42.662;23.352;2023-01-26T03:58:23;95021.09;;;-2.31;86.39
41078;BME280;26823;42.662;23.352;2023-01-26T04:00:49;95028.09;;;-2.17;86.81
41078;BME280;26823;42.662;23.352;2023-01-26T04:03:14;94987.41;;;-2.37;86.89
41078;BME280;26823;42.662;23.352;2023-01-26T04:05:58;95012.56;;;-2.26;87.14
41078;BME280;26823;42.662;23.352;2023-01-26T04:08:43;95011.34;;;-2.24;87.24
41078;BME280;26823;42.662;23.352;2023-01-26T04:11:10;94998.88;;;-2.30;87.30
41078;BME280;26823;42.662;23.352;2023-01-26T04:13:36;95009.31;;;-2.22;86.59
41078;BME280;26823;42.662;23.352;2023-01-26T04:16:20;95006.38;;;-2.34;86.99
41078;BME280;26823;42.662;23.352;2023-01-26T04:19:03;94998.69;;;-2.28;86.87
41078;BME280;26823;42.662;23.352;2023-01-26T04:21:47;94979.25;;;-2.36;87.06
41078;BME280;26823;42.662;23.352;2023-01-26T04:24:13;94990.09;;;-2.31;86.82
41078;BME280;26823;42.662;23.352;2023-01-26T04:26:39;94981.53;;;-2.33;87.14
41078;BME280;26823;42.662;23.352;2023-01-26T04:29:07;94976.28;;;-2.26;87.21
41078;BME280;26823;42.662;23.352;2023-01-26T04:31:33;94966.06;;;-2.29;86.71
41078;BME280;26823;42.662;23.352;2023-01-26T04:34:00;94968.81;;;-2.44;87.05
41078;BME280;26823;42.662;23.352;2023-01-26T04:36:25;94965.84;;;-2.34;87.32
41078;BME280;26823;42.662;23.352;2023-01-26T04:38:51;94964.81;;;-2.33;87.68
41078;BME280;26823;42.662;23.352;2023-01-26T04:41:16;94972.81;;;-2.26;87.46
41078;BME280;26823;42.662;23.352;2023-01-26T04:43:42;94980.00;;;-2.20;86.56
41078;BME280;26823;42.662;23.352;2023-01-26T04:46:08;94983.63;;;-2.28;86.97
41078;BME280;26823;42.662;23.352;2023-01-26T04:48:35;94980.38;;;-2.23;87.10
41078;BME280;26823;42.662;23.352;2023-01-26T04:51:05;94977.41;;;-2.07;86.37
41078;BME280;26823;42.662;23.352;2023-01-26T04:53:32;94984.69;;;-2.16;86.32
41078;BME280;26823;42.662;23.352;2023-01-26T04:55:58;94983.91;;;-2.09;86.53
41078;BME280;26823;42.662;23.352;2023-01-26T04:58:23;94978.19;;;-2.13;86.11
41078;BME280;26823;42.662;23.352;2023-01-26T05:00:54;94977.75;;;-2.17;85.40
41078;BME280;26823;42.662;23.352;2023-01-26T05:03:20;94989.75;;;-2.21;86.16
41078;BME280;26823;42.662;23.352;2023-01-26T05:05:50;94984.44;;;-2.21;86.22
41078;BME280;26823;42.662;23.352;2023-01-26T05:08:16;94986.97;;;-2.13;86.03
41078;BME280;26823;42.662;23.352;2023-01-26T05:10:42;94972.28;;;-2.15;85.94
41078;BME280;26823;42.662;23.352;2023-01-26T05:13:08;94962.44;;;-2.21;85.68
41078;BME280;26823;42.662;23.352;2023-01-26T05:15:34;94973.06;;;-2.15;85.80
41078;BME280;26823;42.662;23.352;2023-01-26T05:18:00;94982.94;;;-2.02;85.42
41078;BME280;26823;42.662;23.352;2023-01-26T05:20:26;94988.88;;;-2.00;85.15
41078;BME280;26823;42.662;23.352;2023-01-26T05:22:52;94979.03;;;-2.06;84.87
41078;BME280;26823;42.662;23.352;2023-01-26T05:25:17;94910.59;;;-2.31;85.33
41078;BME280;26823;42.662;23.352;2023-01-26T05:27:42;94960.06;;;-2.03;85.02
41078;BME280;26823;42.662;23.352;2023-01-26T05:30:09;94958.72;;;-1.92;84.57
41078;BME280;26823;42.662;23.352;2023-01-26T05:32:35;94923.28;;;-2.26;84.36
41078;BME280;26823;42.662;23.352;2023-01-26T05:35:02;94968.34;;;-1.84;83.91
41078;BME280;26823;42.662;23.352;2023-01-26T05:37:28;94953.56;;;-2.00;84.48
41078;BME280;26823;42.662;23.352;2023-01-26T05:39:53;94951.75;;;-2.00;84.26
41078;BME280;26823;42.662;23.352;2023-01-26T05:42:20;94970.34;;;-1.93;84.39
41078;BME280;26823;42.662;23.352;2023-01-26T05:44:45;94961.38;;;-1.92;84.30
41078;BME280;26823;42.662;23.352;2023-01-26T05:47:11;94969.69;;;-2.02;84.21
41078;BME280;26823;42.662;23.352;2023-01-26T05:49:36;94973.38;;;-1.96;84.34
41078;BME280;26823;42.662;23.352;2023-01-26T05:52:19;94966.03;;;-1.94;83.95
41078;BME280;26823;42.662;23.352;2023-01-26T05:54:45;94969.47;;;-2.00;84.16
41078;BME280;26823;42.662;23.352;2023-01-26T05:57:11;94968.50;;;-1.92;84.90
41078;BME280;26823;42.662;23.352;2023-01-26T05:59:37;94975.59;;;-2.00;84.08
41078;BME280;26823;42.662;23.352;2023-01-26T06:02:03;94951.75;;;-2.00;84.27
41078;BME280;26823;42.662;23.352;2023-01-26T06:04:28;94967.09;;;-1.88;83.87
41078;BME280;26823;42.662;23.352;2023-01-26T06:06:58;94965.47;;;-1.83;84.03
41078;BME280;26823;42.662;23.352;2023-01-26T06:09:24;94945.63;;;-2.00;83.96
41078;BME280;26823;42.662;23.352;2023-01-26T06:11:49;94970.34;;;-1.86;83.98
41078;BME280;26823;42.662;23.352;2023-01-26T06:14:15;94965.88;;;-1.86;84.28
41078;BME280;26823;42.662;23.352;2023-01-26T06:16:40;94978.38;;;-1.79;83.96
41078;BME280;26823;42.662;23.352;2023-01-26T06:19:07;94965.47;;;-1.89;84.08
41078;BME280;26823;42.662;23.352;2023-01-26T06:21:33;94959.78;;;-1.79;84.10
41078;BME280;26823;42.662;23.352;2023-01-26T06:23:58;94956.72;;;-1.76;83.62
41078;BME280;26823;42.662;23.352;2023-01-26T06:26:24;94963.88;;;-1.77;83.84
41078;BME280;26823;42.662;23.352;2023-01-26T06:28:53;94931.84;;;-1.82;83.17
41078;BME280;26823;42.662;23.352;2023-01-26T06:31:20;94946.56;;;-1.66;83.37
41078;BME280;26823;42.662;23.352;2023-01-26T06:33:48;94933.69;;;-1.76;83.52
41078;BME280;26823;42.662;23.352;2023-01-26T06:36:14;94936.16;;;-1.74;83.14
41078;BME280;26823;42.662;23.352;2023-01-26T06:38:47;94915.94;;;-1.82;83.24
41078;BME280;26823;42.662;23.352;2023-01-26T06:41:14;94930.41;;;-1.78;83.44
41078;BME280;26823;42.662;23.352;2023-01-26T06:43:43;94944.31;;;-1.76;83.29
41078;BME280;26823;42.662;23.352;2023-01-26T06:46:09;94931.63;;;-1.81;83.30
41078;BME280;26823;42.662;23.352;2023-01-26T06:48:34;94938.22;;;-1.63;83.06
41078;BME280;26823;42.662;23.352;2023-01-26T06:53:32;94946.19;;;-1.63;82.98
41078;BME280;26823;42.662;23.352;2023-01-26T06:55:58;94939.25;;;-1.57;83.41
41078;BME280;26823;42.662;23.352;2023-01-26T06:58:23;94945.44;;;-1.37;82.52
41078;BME280;26823;42.662;23.352;2023-01-26T07:00:49;94927.25;;;-1.46;82.65
41078;BME280;26823;42.662;23.352;2023-01-26T07:03:14;94935.41;;;-1.48;82.31
41078;BME280;26823;42.662;23.352;2023-01-26T07:05:40;94916.16;;;-1.70;83.00
41078;BME280;26823;42.662;23.352;2023-01-26T07:08:05;94935.38;;;-1.61;82.89
41078;BME280;26823;42.662;23.352;2023-01-26T07:10:35;94930.84;;;-1.68;83.06
41078;BME280;26823;42.662;23.352;2023-01-26T07:13:03;94933.34;;;-1.59;83.24
41078;BME280;26823;42.662;23.352;2023-01-26T07:15:29;94914.38;;;-1.56;82.85
41078;BME280;26823;42.662;23.352;2023-01-26T07:17:56;94922.94;;;-1.54;83.20
41078;BME280;26823;42.662;23.352;2023-01-26T07:20:21;94879.44;;;-1.73;83.00
41078;BME280;26823;42.662;23.352;2023-01-26T07:22:47;94911.09;;;-1.58;82.34
41078;BME280;26823;42.662;23.352;2023-01-26T07:25:12;94914.38;;;-1.50;82.80
41078;BME280;26823;42.662;23.352;2023-01-26T07:27:38;94918.06;;;-1.51;82.74
41078;BME280;26823;42.662;23.352;2023-01-26T07:30:04;94892.34;;;-1.50;82.87
41078;BME280;26823;42.662;23.352;2023-01-26T07:32:30;94916.44;;;-1.38;82.53
41078;BME280;26823;42.662;23.352;2023-01-26T07:34:55;94911.53;;;-1.41;82.44
41078;BME280;26823;42.662;23.352;2023-01-26T07:37:21;94897.91;;;-1.25;81.87
41078;BME280;26823;42.662;23.352;2023-01-26T07:39:46;94899.72;;;-1.32;82.13
41078;BME280;26823;42.662;23.352;2023-01-26T07:42:13;94909.72;;;-1.21;82.38
41078;BME280;26823;42.662;23.352;2023-01-26T07:44:38;94905.84;;;-1.25;82.24
41078;BME280;26823;42.662;23.352;2023-01-26T07:47:04;94900.13;;;-1.35;82.58
41078;BME280;26823;42.662;23.352;2023-01-26T07:49:36;94896.03;;;-1.31;82.88
41078;BME280;26823;42.662;23.352;2023-01-26T07:52:02;94909.75;;;-1.07;81.96
41078;BME280;26823;42.662;23.352;2023-01-26T07:54:28;94904.44;;;-1.01;82.09
41078;BME280;26823;42.662;23.352;2023-01-26T07:56:54;94895.06;;;-0.90;81.12
41078;BME280;26823;42.662;23.352;2023-01-26T07:59:20;94886.47;;;-0.72;80.67
41078;BME280;26823;42.662;23.352;2023-01-26T08:01:48;94908.47;;;-0.44;80.08
41078;BME280;26823;42.662;23.352;2023-01-26T08:04:13;94900.66;;;-0.26;79.25
41078;BME280;26823;42.662;23.352;2023-01-26T08:06:39;94851.47;;;-0.55;78.42
41078;BME280;26823;42.662;23.352;2023-01-26T08:09:04;94874.72;;;-0.24;78.48
41078;BME280;26823;42.662;23.352;2023-01-26T08:11:29;94883.97;;;-0.46;78.80
41078;BME280;26823;42.662;23.352;2023-01-26T08:13:55;94842.72;;;-0.83;78.89
41078;BME280;26823;42.662;23.352;2023-01-26T08:16:20;94881.75;;;-0.70;79.54
41078;BME280;26823;42.662;23.352;2023-01-26T08:18:46;94885.44;;;-0.71;79.62
41078;BME280;26823;42.662;23.352;2023-01-26T08:21:14;94833.97;;;-1.17;79.82
41078;BME280;26823;42.662;23.352;2023-01-26T08:23:40;94877.47;;;-0.91;79.69
41078;BME280;26823;42.662;23.352;2023-01-26T08:26:07;94881.53;;;-0.75;79.69
41078;BME280;26823;42.662;23.352;2023-01-26T08:28:34;94884.59;;;-0.58;79.41
41078;BME280;26823;42.662;23.352;2023-01-26T08:33:30;94864.41;;;-0.86;78.80
41078;BME280;26823;42.662;23.352;2023-01-26T08:36:00;94861.94;;;-0.80;78.93
41078;BME280;26823;42.662;23.352;2023-01-26T08:38:29;94856.41;;;-0.79;78.95
41078;BME280;26823;42.662;23.352;2023-01-26T08:40:54;94855.81;;;-0.88;79.09
41078;BME280;26823;42.662;23.352;2023-01-26T08:43:20;94839.69;;;-0.79;78.86
41078;BME280;26823;42.662;23.352;2023-01-26T08:45:46;94866.16;;;-0.46;78.20
41078;BME280;26823;42.662;23.352;2023-01-26T08:48:11;94869.38;;;-0.30;77.27
41078;BME280;26823;42.662;23.352;2023-01-26T08:50:37;94851.47;;;-0.48;77.35
41078;BME280;26823;42.662;23.352;2023-01-26T08:53:02;94847.81;;;-0.54;76.97
41078;BME280;26823;42.662;23.352;2023-01-26T08:55:27;94867.59;;;-0.43;76.66
41078;BME280;26823;42.662;23.352;2023-01-26T08:57:53;94861.81;;;-0.20;76.16
41078;BME280;26823;42.662;23.352;2023-01-26T09:00:21;94867.69;;;-0.05;75.06
41078;BME280;26823;42.662;23.352;2023-01-26T09:02:46;94854.31;;;-0.37;74.78
41078;BME280;26823;42.662;23.352;2023-01-26T09:05:13;94869.56;;;-0.19;75.36
41078;BME280;26823;42.662;23.352;2023-01-26T09:07:39;94845.13;;;-0.47;75.09
41078;BME280;26823;42.662;23.352;2023-01-26T09:10:04;94875.53;;;-0.30;75.46
41078;BME280;26823;42.662;23.352;2023-01-26T09:12:30;94878.38;;;-0.25;74.53
41078;BME280;26823;42.662;23.352;2023-01-26T09:14:56;94861.81;;;-0.27;74.93
41078;BME280;26823;42.662;23.352;2023-01-26T09:17:21;94855.19;;;-0.04;74.44
41078;BME280;26823;42.662;23.352;2023-01-26T09:19:46;94813.97;;;-0.20;74.61
41078;BME280;26823;42.662;23.352;2023-01-26T09:22:12;94855.88;;;-0.22;74.56
41078;BME280;26823;42.662;23.352;2023-01-26T09:24:37;94856.94;;;-0.30;74.87
41078;BME280;26823;42.662;23.352;2023-01-26T09:27:03;94849.75;;;-0.29;75.86
41078;BME280;26823;42.662;23.352;2023-01-26T09:29:28;94818.09;;;-0.31;75.36
41078;BME280;26823;42.662;23.352;2023-01-26T09:31:53;94848.22;;;-0.05;74.64
41078;BME280;26823;42.662;23.352;2023-01-26T09:34:19;94830.97;;;-0.35;75.33
41078;BME280;26823;42.662;23.352;2023-01-26T09:36:44;94822.84;;;-0.46;75.66
41078;BME280;26823;42.662;23.352;2023-01-26T09:39:10;94823.47;;;-0.51;75.53
41078;BME280;26823;42.662;23.352;2023-01-26T09:42:01;94838.94;;;-0.35;76.60
41078;BME280;26823;42.662;23.352;2023-01-26T09:44:32;94826.66;;;-0.36;76.11
41078;BME280;26823;42.662;23.352;2023-01-26T09:47:20;94843.06;;;-0.39;75.96
41078;BME280;26823;42.662;23.352;2023-01-26T09:52:26;94818.34;;;-0.53;76.54
41078;BME280;26823;42.662;23.352;2023-01-26T09:54:54;94817.94;;;-0.50;76.84
41078;BME280;26823;42.662;23.352;2023-01-26T09:57:25;94808.94;;;-0.48;76.90
41078;BME280;26823;42.662;23.352;2023-01-26T10:00:04;94808.16;;;-0.62;76.95
41078;BME280;26823;42.662;23.352;2023-01-26T10:08:11;94804.59;;;-0.36;76.24
41078;BME280;26823;42.662;23.352;2023-01-26T10:10:43;94812.28;;;-0.14;76.16
41078;BME280;26823;42.662;23.352;2023-01-26T10:13:13;94803.59;;;-0.35;76.25
41078;BME280;26823;42.662;23.352;2023-01-26T10:15:42;94820.69;;;-0.18;76.04
41078;BME280;26823;42.662;23.352;2023-01-26T10:18:16;94785.06;;;-0.55;76.42
41078;BME280;26823;42.662;23.352;2023-01-26T10:20:53;94782.19;;;-0.54;76.82
41078;BME280;26823;42.662;23.352;2023-01-26T10:23:27;94761.72;;;-0.46;76.90
41078;BME280;26823;42.662;23.352;2023-01-26T10:25:57;94756.22;;;-0.52;76.75
41078;BME280;26823;42.662;23.352;2023-01-26T10:28:31;94765.13;;;-0.32;76.94
41078;BME280;26823;42.662;23.352;2023-01-26T10:30:59;94760.84;;;-0.34;76.59
41078;BME280;26823;42.662;23.352;2023-01-26T10:33:30;94754.31;;;-0.38;76.73
41078;BME280;26823;42.662;23.352;2023-01-26T10:35:57;94759.34;;;-0.16;76.53
41078;BME280;26823;42.662;23.352;2023-01-26T10:41:01;94757.56;;;-0.36;76.48
41078;BME280;26823;42.662;23.352;2023-01-26T10:43:27;94728.72;;;-0.25;76.47
41078;BME280;26823;42.662;23.352;2023-01-26T10:45:53;94726.06;;;-0.32;76.09
41078;BME280;26823;42.662;23.352;2023-01-26T10:48:19;94720.19;;;-0.02;76.74
41078;BME280;26823;42.662;23.352;2023-01-26T10:50:46;94713.47;;;0.21;75.63
41078;BME280;26823;42.662;23.352;2023-01-26T10:53:23;94706.72;;;-0.07;75.05
41078;BME280;26823;42.662;23.352;2023-01-26T11:01:14;94675.63;;;0.19;74.96
41078;BME280;26823;42.662;23.352;2023-01-26T11:04:10;94685.25;;;0.20;74.45
41078;BME280;26823;42.662;23.352;2023-01-26T11:06:36;94668.63;;;0.24;74.94
41078;BME280;26823;42.662;23.352;2023-01-26T11:11:34;94671.63;;;0.35;73.29
41078;BME280;26823;42.662;23.352;2023-01-26T11:16:34;94655.53;;;0.48;74.07
41078;BME280;26823;42.662;23.352;2023-01-26T11:22:07;94634.25;;;0.23;74.04
41078;BME280;26823;42.662;23.352;2023-01-26T11:24:55;94636.50;;;0.26;74.32
41078;BME280;26823;42.662;23.352;2023-01-26T11:27:48;94604.06;;;0.36;74.68
41078;BME280;26823;42.662;23.352;2023-01-26T11:30:32;94615.53;;;0.36;74.60
41078;BME280;26823;42.662;23.352;2023-01-26T11:36:37;94622.47;;;0.56;74.30
41078;BME280;26823;42.662;23.352;2023-01-26T11:52:50;94598.56;;;1.23;71.84
41078;BME280;26823;42.662;23.352;2023-01-26T11:58:15;94607.41;;;1.05;71.97
41078;BME280;26823;42.662;23.352;2023-01-26T12:00:54;94580.44;;;1.13;71.76
41078;BME280;26823;42.662;23.352;2023-01-26T12:03:25;94589.41;;;1.19;72.15
41078;BME280;26823;42.662;23.352;2023-01-26T12:05:59;94580.22;;;1.15;71.72
41078;BME280;26823;42.662;23.352;2023-01-26T12:08:28;94579.63;;;0.83;73.04
41078;BME280;26823;42.662;23.352;2023-01-26T12:11:13;94591.72;;;0.97;72.90
41078;BME280;26823;42.662;23.352;2023-01-26T12:21:43;94548.41;;;0.34;74.96
41078;BME280;26823;42.662;23.352;2023-01-26T12:24:16;94556.91;;;0.61;75.03
41078;BME280;26823;42.662;23.352;2023-01-26T12:26:47;94538.03;;;0.81;74.68
41078;BME280;26823;42.662;23.352;2023-01-26T12:29:15;94534.31;;;0.52;75.96
41078;BME280;26823;42.662;23.352;2023-01-26T12:34:13;94530.16;;;0.38;76.87
41078;BME280;26823;42.662;23.352;2023-01-26T12:49:52;94525.38;;;0.77;76.88
41078;BME280;26823;42.662;23.352;2023-01-26T12:52:43;94528.41;;;0.99;76.02
41078;BME280;26823;42.662;23.352;2023-01-26T12:55:16;94511.06;;;0.59;76.99
41078;BME280;26823;42.662;23.352;2023-01-26T12:57:49;94502.56;;;0.51;76.37
41078;BME280;26823;42.662;23.352;2023-01-26T13:02:45;94509.66;;;0.57;77.27
41078;BME280;26823;42.662;23.352;2023-01-26T13:07:54;94501.38;;;0.65;78.59
41078;BME280;26823;42.662;23.352;2023-01-26T13:10:25;94523.88;;;1.00;77.76
41078;BME280;26823;42.662;23.352;2023-01-26T13:15:21;94514.88;;;0.82;77.73
41078;BME280;26823;42.662;23.352;2023-01-26T13:17:55;94504.72;;;0.60;77.56
41078;BME280;26823;42.662;23.352;2023-01-26T13:20:22;94517.44;;;0.58;78.59
41078;BME280;26823;42.662;23.352;2023-01-26T13:22:49;94518.75;;;0.49;78.99
41078;BME280;26823;42.662;23.352;2023-01-26T13:25:18;94505.53;;;0.42;79.32
41078;BME280;26823;42.662;23.352;2023-01-26T13:27:56;94473.47;;;0.37;79.03
41078;BME280;26823;42.662;23.352;2023-01-26T13:35:19;94498.72;;;0.28;80.28
41078;BME280;26823;42.662;23.352;2023-01-26T13:38:07;94499.69;;;0.34;80.60
41078;BME280;26823;42.662;23.352;2023-01-26T13:40:44;94491.66;;;0.22;81.06
41078;BME280;26823;42.662;23.352;2023-01-26T13:46:00;94480.94;;;0.47;80.90
41078;BME280;26823;42.662;23.352;2023-01-26T13:51:03;94485.19;;;0.48;80.13
41078;BME280;26823;42.662;23.352;2023-01-26T13:56:02;94477.59;;;0.52;79.31
41078;BME280;26823;42.662;23.352;2023-01-26T13:58:28;94477.16;;;0.36;80.21
41078;BME280;26823;42.662;23.352;2023-01-26T14:00:59;94471.47;;;0.51;79.75
41078;BME280;26823;42.662;23.352;2023-01-26T14:03:25;94469.38;;;0.53;79.46
41078;BME280;26823;42.662;23.352;2023-01-26T14:05:53;94456.88;;;0.54;78.85
41078;BME280;26823;42.662;23.352;2023-01-26T14:08:20;94453.69;;;0.63;79.35
41078;BME280;26823;42.662;23.352;2023-01-26T14:10:47;94462.38;;;0.71;78.68
41078;BME280;26823;42.662;23.352;2023-01-26T14:13:19;94445.63;;;0.70;78.36
41078;BME280;26823;42.662;23.352;2023-01-26T14:15:54;94428.97;;;0.75;77.52
41078;BME280;26823;42.662;23.352;2023-01-26T14:18:20;94452.97;;;0.87;77.52
41078;BME280;26823;42.662;23.352;2023-01-26T14:20:47;94455.53;;;0.93;76.92
41078;BME280;26823;42.662;23.352;2023-01-26T14:23:13;94453.81;;;0.99;76.30
41078;BME280;26823;42.662;23.352;2023-01-26T14:25:44;94454.84;;;0.98;76.41
41078;BME280;26823;42.662;23.352;2023-01-26T14:28:15;94449.66;;;1.03;76.63
41078;BME280;26823;42.662;23.352;2023-01-26T14:30:40;94437.53;;;1.19;75.90
41078;BME280;26823;42.662;23.352;2023-01-26T14:33:14;94436.22;;;0.98;75.36
41078;BME280;26823;42.662;23.352;2023-01-26T14:35:57;94417.84;;;0.66;76.13
41078;BME280;26823;42.662;23.352;2023-01-26T14:38:23;94421.13;;;0.50;76.96
41078;BME280;26823;42.662;23.352;2023-01-26T14:40:54;94439.31;;;0.64;77.45